createdAt,value
2023-02-09T00:00:14.518Z,-5.41
2023-02-09T00:01:14.533Z,-5.33
2023-02-09T00:03:44.923Z,-5.22
2023-02-09T00:04:44.859Z,-5.22
2023-02-09T00:05:44.860Z,-5.20
2023-02-09T00:06:44.852Z,-5.31
2023-02-09T00:07:44.858Z,-5.20
2023-02-09T00:08:44.822Z,-5.41
2023-02-09T00:09:44.816Z,-5.43
2023-02-09T00:10:45.035Z,-5.41
2023-02-09T00:11:44.803Z,-5.44
2023-02-09T00:12:44.782Z,-5.59
2023-02-09T00:13:44.788Z,-5.45
2023-02-09T00:14:44.753Z,-5.54
2023-02-09T00:15:44.753Z,-5.62
2023-02-09T00:16:44.842Z,-5.45
2023-02-09T00:17:44.761Z,-5.45
2023-02-09T00:18:44.725Z,-5.56
2023-02-09T00:19:44.706Z,-5.47
2023-02-09T00:20:45.035Z,-5.34
2023-02-09T00:21:44.685Z,-5.31
2023-02-09T00:22:44.682Z,-5.20
2023-02-09T00:23:44.663Z,-5.31
2023-02-09T00:24:44.650Z,-5.30
2023-02-09T00:25:44.647Z,-5.54
2023-02-09T00:26:44.660Z,-5.69
2023-02-09T00:27:44.631Z,-5.74
2023-02-09T00:28:44.610Z,-5.73
2023-02-09T00:29:44.603Z,-5.69
2023-02-09T00:30:44.918Z,-5.80
2023-02-09T00:31:44.628Z,-5.82
2023-02-09T00:32:44.581Z,-5.79
2023-02-09T00:33:44.560Z,-5.90
2023-02-09T00:34:44.549Z,-5.83
2023-02-09T00:35:44.533Z,-5.79
2023-02-09T00:36:44.533Z,-5.84
2023-02-09T00:37:44.514Z,-5.90
2023-02-09T00:38:44.540Z,-5.91
2023-02-09T00:39:44.497Z,-5.94
2023-02-09T00:40:44.874Z,-5.95
2023-02-09T00:41:44.494Z,-5.87
2023-02-09T00:42:44.461Z,-5.80
2023-02-09T00:43:44.475Z,-5.74
2023-02-09T00:44:44.439Z,-5.72
2023-02-09T00:45:44.460Z,-5.72
2023-02-09T00:46:44.416Z,-5.52
2023-02-09T00:47:44.414Z,-5.58
2023-02-09T00:48:44.413Z,-5.55
2023-02-09T00:49:44.393Z,-5.62
2023-02-09T00:50:44.823Z,-5.62
2023-02-09T00:51:44.370Z,-5.70
2023-02-09T00:52:44.378Z,-5.58
2023-02-09T00:53:44.365Z,-5.65
2023-02-09T00:54:44.341Z,-5.56
2023-02-09T00:55:44.323Z,-5.69
2023-02-09T00:56:44.318Z,-5.44
2023-02-09T00:57:44.303Z,-5.45
2023-02-09T00:58:44.315Z,-5.59
2023-02-09T00:59:44.284Z,-5.58
2023-02-09T01:00:44.723Z,-5.49
2023-02-09T01:01:44.264Z,-5.51
2023-02-09T01:02:44.245Z,-5.49
2023-02-09T01:03:44.249Z,-5.49
2023-02-09T01:04:44.269Z,-5.51
2023-02-09T01:05:44.218Z,-5.47
2023-02-09T01:06:44.203Z,-5.54
2023-02-09T01:07:44.220Z,-5.58
2023-02-09T01:08:44.195Z,-5.70
2023-02-09T01:09:44.176Z,-5.70
2023-02-09T01:10:44.524Z,-5.73
2023-02-09T01:11:44.158Z,-5.74
2023-02-09T01:12:44.148Z,-5.69
2023-02-09T01:13:44.146Z,-5.77
2023-02-09T01:14:44.115Z,-5.76
2023-02-09T01:15:44.115Z,-5.76
2023-02-09T01:16:44.113Z,-5.74
2023-02-09T01:17:44.090Z,-5.83
2023-02-09T01:18:44.103Z,-5.76
2023-02-09T01:19:44.069Z,-5.82
2023-02-09T01:20:44.496Z,-5.73
2023-02-09T01:21:44.052Z,-5.74
2023-02-09T01:22:44.031Z,-5.73
2023-02-09T01:23:45.189Z,-5.79
2023-02-09T01:24:45.154Z,-5.80
2023-02-09T01:25:45.135Z,-5.77
2023-02-09T01:26:45.165Z,-5.74
2023-02-09T01:27:45.157Z,-5.73
2023-02-09T01:28:45.134Z,-5.80
2023-02-09T01:29:45.097Z,-5.73
2023-02-09T01:30:45.512Z,-5.76
2023-02-09T01:31:45.177Z,-5.84
2023-02-09T01:32:45.083Z,-5.74
2023-02-09T01:33:45.075Z,-5.79
2023-02-09T01:34:45.150Z,-5.79
2023-02-09T01:35:45.057Z,-5.83
2023-02-09T01:36:45.044Z,-5.90
2023-02-09T01:37:45.038Z,-5.87
2023-02-09T01:38:45.009Z,-5.98
2023-02-09T01:39:45.042Z,-6.08
2023-02-09T01:40:45.361Z,-6.05
2023-02-09T01:41:44.974Z,-5.98
2023-02-09T01:42:44.984Z,-6.06
2023-02-09T01:43:44.995Z,-5.95
2023-02-09T01:44:44.961Z,-5.88
2023-02-09T01:45:44.950Z,-5.94
2023-02-09T01:46:44.933Z,-5.92
2023-02-09T01:47:44.933Z,-5.88
2023-02-09T01:48:44.946Z,-5.80
2023-02-09T01:49:44.895Z,-5.84
2023-02-09T01:50:45.179Z,-5.77
2023-02-09T01:51:44.902Z,-5.84
2023-02-09T01:52:44.912Z,-5.90
2023-02-09T01:53:44.863Z,-5.79
2023-02-09T01:54:44.863Z,-5.79
2023-02-09T01:55:44.849Z,-5.72
2023-02-09T01:56:44.841Z,-5.77
2023-02-09T01:57:44.825Z,-5.83
2023-02-09T01:58:44.840Z,-5.76
2023-02-09T01:59:44.813Z,-5.84
2023-02-09T02:00:45.075Z,-5.79
2023-02-09T02:01:44.856Z,-5.92
2023-02-09T02:02:44.848Z,-6.00
2023-02-09T02:03:44.787Z,-6.13
2023-02-09T02:04:44.766Z,-6.08
2023-02-09T02:05:44.804Z,-6.13
2023-02-09T02:06:44.756Z,-6.15
2023-02-09T02:07:44.750Z,-6.23
2023-02-09T02:08:44.735Z,-6.31
2023-02-09T02:09:44.729Z,-6.16
2023-02-09T02:10:44.993Z,-6.29
2023-02-09T02:11:44.704Z,-6.08
2023-02-09T02:12:44.669Z,-6.06
2023-02-09T02:13:44.699Z,-6.13
2023-02-09T02:14:44.679Z,-6.21
2023-02-09T02:15:44.728Z,-6.26
2023-02-09T02:16:44.656Z,-6.23
2023-02-09T02:17:44.636Z,-6.19
2023-02-09T02:18:44.639Z,-6.21
2023-02-09T02:19:44.620Z,-6.23
2023-02-09T02:20:44.867Z,-6.12
2023-02-09T02:21:44.597Z,-6.19
2023-02-09T02:22:44.590Z,-6.06
2023-02-09T02:23:44.622Z,-6.16
2023-02-09T02:24:44.546Z,-6.08
2023-02-09T02:25:44.546Z,-6.27
2023-02-09T02:26:44.531Z,-6.09
2023-02-09T02:27:44.584Z,-6.12
2023-02-09T02:28:44.554Z,-6.23
2023-02-09T02:29:44.544Z,-6.29
2023-02-09T02:30:44.965Z,-6.26
2023-02-09T02:31:44.543Z,-6.13
2023-02-09T02:32:44.474Z,-6.06
2023-02-09T02:33:44.467Z,-6.15
2023-02-09T02:34:45.515Z,-6.19
2023-02-09T02:35:44.437Z,-6.19
2023-02-09T02:36:44.451Z,-6.12
2023-02-09T02:37:44.429Z,-6.06
2023-02-09T02:38:44.461Z,-6.09
2023-02-09T02:39:44.446Z,-6.13
2023-02-09T02:40:44.727Z,-6.13
2023-02-09T02:41:44.405Z,-6.24
2023-02-09T02:42:44.388Z,-6.15
2023-02-09T02:43:44.387Z,-6.23
2023-02-09T02:44:44.396Z,-6.26
2023-02-09T02:45:44.406Z,-6.44
2023-02-09T02:46:44.429Z,-6.42
2023-02-09T02:47:44.337Z,-6.34
2023-02-09T02:48:44.336Z,-6.37
2023-02-09T02:49:44.337Z,-6.51
2023-02-09T02:50:44.745Z,-6.55
2023-02-09T02:51:44.297Z,-6.42
2023-02-09T02:52:44.303Z,-6.45
2023-02-09T02:53:44.274Z,-6.45
2023-02-09T02:54:44.280Z,-6.50
2023-02-09T02:55:44.245Z,-6.51
2023-02-09T02:56:44.260Z,-6.45
2023-02-09T02:57:44.232Z,-6.48
2023-02-09T02:58:44.239Z,-6.52
2023-02-09T02:59:44.248Z,-6.48
2023-02-09T03:00:44.542Z,-6.54
2023-02-09T03:01:44.257Z,-6.42
2023-02-09T03:02:44.161Z,-6.44
2023-02-09T03:03:44.191Z,-6.42
2023-02-09T03:04:44.194Z,-6.40
2023-02-09T03:05:44.221Z,-6.42
2023-02-09T03:06:44.145Z,-6.36
2023-02-09T03:07:44.172Z,-6.40
2023-02-09T03:08:44.132Z,-6.37
2023-02-09T03:09:44.130Z,-6.39
2023-02-09T03:10:44.555Z,-6.37
2023-02-09T03:11:44.119Z,-6.34
2023-02-09T03:12:44.094Z,-6.44
2023-02-09T03:13:44.100Z,-6.31
2023-02-09T03:14:44.102Z,-6.33
2023-02-09T03:15:44.103Z,-6.51
2023-02-09T03:16:44.072Z,-6.48
2023-02-09T03:17:44.056Z,-6.51
2023-02-09T03:18:44.062Z,-6.47
2023-02-09T03:19:44.027Z,-6.51
2023-02-09T03:20:44.268Z,-6.58
2023-02-09T03:21:43.991Z,-6.44
2023-02-09T03:22:43.982Z,-6.50
2023-02-09T03:23:44.017Z,-6.52
2023-02-09T03:24:43.982Z,-6.58
2023-02-09T03:25:43.983Z,-6.51
2023-02-09T03:26:43.922Z,-6.54
2023-02-09T03:27:43.939Z,-6.54
2023-02-09T03:28:43.916Z,-6.44
2023-02-09T03:29:43.944Z,-6.51
2023-02-09T03:30:44.368Z,-6.61
2023-02-09T03:31:43.942Z,-6.66
2023-02-09T03:32:43.901Z,-6.67
2023-02-09T03:33:43.864Z,-6.67
2023-02-09T03:34:43.892Z,-6.64
2023-02-09T03:35:43.844Z,-6.77
2023-02-09T03:36:43.858Z,-6.69
2023-02-09T03:37:43.837Z,-6.76
2023-02-09T03:38:43.817Z,-6.90
2023-02-09T03:39:43.809Z,-6.85
2023-02-09T03:40:44.123Z,-6.87
2023-02-09T03:41:43.787Z,-6.85
2023-02-09T03:42:43.765Z,-6.99
2023-02-09T03:43:43.760Z,-6.92
2023-02-09T03:44:43.758Z,-6.84
2023-02-09T03:45:43.772Z,-6.94
2023-02-09T03:46:43.845Z,-6.90
2023-02-09T03:47:43.720Z,-6.87
2023-02-09T03:48:43.714Z,-6.90
2023-02-09T03:49:43.704Z,-6.99
2023-02-09T03:50:44.052Z,-6.91
2023-02-09T03:51:43.697Z,-6.88
2023-02-09T03:52:43.673Z,-6.90
2023-02-09T03:53:43.667Z,-7.02
2023-02-09T03:54:43.649Z,-6.88
2023-02-09T03:55:43.654Z,-6.92
2023-02-09T03:56:43.620Z,-6.94
2023-02-09T03:57:43.632Z,-7.02
2023-02-09T03:58:43.635Z,-6.92
2023-02-09T03:59:43.597Z,-7.03
2023-02-09T04:00:43.901Z,-7.09
2023-02-09T04:01:44.598Z,-7.06
2023-02-09T04:02:43.604Z,-6.97
2023-02-09T04:03:43.574Z,-7.05
2023-02-09T04:04:43.564Z,-7.08
2023-02-09T04:05:43.555Z,-7.09
2023-02-09T04:06:43.537Z,-7.08
2023-02-09T04:07:43.509Z,-7.10
2023-02-09T04:08:43.536Z,-7.08
2023-02-09T04:09:43.503Z,-7.00
2023-02-09T04:10:43.749Z,-7.03
2023-02-09T04:11:43.488Z,-7.00
2023-02-09T04:12:43.459Z,-6.90
2023-02-09T04:13:43.456Z,-6.92
2023-02-09T04:14:43.474Z,-6.91
2023-02-09T04:15:43.436Z,-6.88
2023-02-09T04:16:43.442Z,-6.85
2023-02-09T04:17:43.445Z,-6.82
2023-02-09T04:18:43.405Z,-6.81
2023-02-09T04:19:43.408Z,-6.85
2023-02-09T04:20:43.603Z,-6.81
2023-02-09T04:21:43.372Z,-6.82
2023-02-09T04:22:43.359Z,-6.74
2023-02-09T04:23:43.352Z,-6.84
2023-02-09T04:24:43.340Z,-6.73
2023-02-09T04:25:43.355Z,-6.66
2023-02-09T04:26:43.343Z,-6.69
2023-02-09T04:27:43.310Z,-6.82
2023-02-09T04:28:43.296Z,-6.70
2023-02-09T04:29:43.293Z,-6.69
2023-02-09T04:30:43.495Z,-6.73
2023-02-09T04:31:43.322Z,-6.71
2023-02-09T04:32:43.270Z,-6.54
2023-02-09T04:33:43.246Z,-6.71
2023-02-09T04:34:43.282Z,-6.70
2023-02-09T04:35:43.255Z,-6.76
2023-02-09T04:36:43.218Z,-6.70
2023-02-09T04:37:43.206Z,-6.61
2023-02-09T04:38:43.195Z,-6.81
2023-02-09T04:39:43.202Z,-6.71
2023-02-09T04:40:43.516Z,-6.81
2023-02-09T04:41:43.175Z,-6.70
2023-02-09T04:42:43.187Z,-6.74
2023-02-09T04:43:43.157Z,-6.76
2023-02-09T04:44:43.136Z,-6.97
2023-02-09T04:45:43.156Z,-6.94
2023-02-09T04:46:45.413Z,-7.00
2023-02-09T04:47:43.101Z,-6.92
2023-02-09T04:48:43.109Z,-6.94
2023-02-09T04:49:43.103Z,-6.85
2023-02-09T04:50:43.524Z,-6.85
2023-02-09T04:51:43.072Z,-6.77
2023-02-09T04:52:43.055Z,-6.70
2023-02-09T04:53:43.096Z,-6.74
2023-02-09T04:54:43.051Z,-6.74
2023-02-09T04:55:43.021Z,-6.76
2023-02-09T04:56:43.036Z,-6.90
2023-02-09T04:57:43.023Z,-6.85
2023-02-09T04:58:42.994Z,-6.82
2023-02-09T04:59:42.996Z,-6.76
2023-02-09T05:00:43.177Z,-6.90
2023-02-09T05:01:42.980Z,-6.87
2023-02-09T05:02:43.978Z,-6.84
2023-02-09T05:03:42.991Z,-6.84
2023-02-09T05:04:42.939Z,-6.91
2023-02-09T05:05:42.930Z,-6.97
2023-02-09T05:06:43.003Z,-7.13
2023-02-09T05:07:42.922Z,-7.05
2023-02-09T05:08:42.891Z,-7.12
2023-02-09T05:09:42.885Z,-7.02
2023-02-09T05:10:42.902Z,-7.03
2023-02-09T05:11:42.902Z,-7.10
2023-02-09T05:12:42.857Z,-6.97
2023-02-09T05:13:42.852Z,-6.97
2023-02-09T05:14:42.842Z,-6.85
2023-02-09T05:15:42.835Z,-6.90
2023-02-09T05:16:42.949Z,-6.88
2023-02-09T05:17:42.815Z,-6.74
2023-02-09T05:18:42.795Z,-6.73
2023-02-09T05:19:42.801Z,-6.81
2023-02-09T05:20:42.836Z,-6.70
2023-02-09T05:21:42.788Z,-6.88
2023-02-09T05:22:42.757Z,-6.73
2023-02-09T05:23:42.792Z,-6.88
2023-02-09T05:24:42.737Z,-6.84
2023-02-09T05:25:42.730Z,-6.97
2023-02-09T05:26:42.764Z,-7.03
2023-02-09T05:27:42.758Z,-7.03
2023-02-09T05:28:42.775Z,-7.00
2023-02-09T05:29:42.766Z,-7.08
2023-02-09T05:30:42.895Z,-7.08
2023-02-09T05:31:42.883Z,-7.09
2023-02-09T05:32:42.813Z,-7.02
2023-02-09T05:33:42.850Z,-7.06
2023-02-09T05:34:42.745Z,-6.99
2023-02-09T05:35:42.768Z,-6.99
2023-02-09T05:36:42.873Z,-7.06
2023-02-09T05:37:42.727Z,-7.00
2023-02-09T05:38:42.800Z,-7.08
2023-02-09T05:39:42.659Z,-7.05
2023-02-09T05:40:45.041Z,-7.10
2023-02-09T05:41:42.795Z,-7.12
2023-02-09T05:42:42.758Z,-7.12
2023-02-09T05:43:42.732Z,-7.16
2023-02-09T05:44:42.639Z,-7.12
2023-02-09T05:45:42.644Z,-7.15
2023-02-09T05:46:42.693Z,-7.19
2023-02-09T05:47:42.621Z,-7.10
2023-02-09T05:48:42.515Z,-7.05
2023-02-09T05:49:42.537Z,-6.87
2023-02-09T05:50:42.518Z,-7.05
2023-02-09T05:51:42.508Z,-7.02
2023-02-09T05:52:42.499Z,-7.09
2023-02-09T05:53:42.514Z,-7.05
2023-02-09T05:54:42.468Z,-7.12
2023-02-09T05:55:42.473Z,-7.21
2023-02-09T05:56:42.439Z,-7.12
2023-02-09T05:57:42.480Z,-7.13
2023-02-09T05:58:42.404Z,-7.12
2023-02-09T05:59:42.399Z,-7.13
2023-02-09T06:00:42.370Z,-7.24
2023-02-09T06:01:42.366Z,-7.20
2023-02-09T06:02:42.468Z,-7.16
2023-02-09T06:03:42.403Z,-7.20
2023-02-09T06:04:42.347Z,-7.16
2023-02-09T06:05:42.357Z,-7.34
2023-02-09T06:06:42.342Z,-7.21
2023-02-09T06:07:42.316Z,-7.26
2023-02-09T06:08:42.305Z,-7.23
2023-02-09T06:09:42.306Z,-7.31
2023-02-09T06:10:42.296Z,-7.30
2023-02-09T06:11:42.269Z,-7.34
2023-02-09T06:12:42.303Z,-7.24
2023-02-09T06:13:42.268Z,-7.27
2023-02-09T06:14:42.237Z,-7.26
2023-02-09T06:15:42.286Z,-7.21
2023-02-09T06:16:42.221Z,-7.16
2023-02-09T06:17:42.218Z,-7.09
2023-02-09T06:18:42.346Z,-7.15
2023-02-09T06:19:43.380Z,-7.19
2023-02-09T06:26:45.238Z,-7.09
2023-02-09T06:27:45.246Z,-7.15
2023-02-09T06:28:45.218Z,-7.13
2023-02-09T06:29:45.208Z,-7.16
2023-02-09T06:30:45.417Z,-7.12
2023-02-09T06:31:45.338Z,-7.12
2023-02-09T06:32:45.318Z,-7.05
2023-02-09T06:33:45.185Z,-7.15
2023-02-09T06:34:45.161Z,-7.15
2023-02-09T06:35:45.152Z,-7.21
2023-02-09T06:36:45.134Z,-7.16
2023-02-09T06:37:45.146Z,-7.26
2023-02-09T06:38:45.122Z,-7.27
2023-02-09T06:39:45.121Z,-7.26
2023-02-09T06:40:45.372Z,-7.19
2023-02-09T06:41:45.101Z,-7.23
2023-02-09T06:42:45.122Z,-7.24
2023-02-09T06:43:45.096Z,-7.31
2023-02-09T06:44:45.056Z,-7.27
2023-02-09T06:45:45.051Z,-7.45
2023-02-09T06:46:45.047Z,-7.41
2023-02-09T06:47:45.048Z,-7.27
2023-02-09T06:48:45.017Z,-7.30
2023-02-09T06:49:45.008Z,-7.31
2023-02-09T06:50:45.499Z,-7.41
2023-02-09T06:51:44.994Z,-7.37
2023-02-09T06:52:45.031Z,-7.38
2023-02-09T06:53:45.005Z,-7.39
2023-02-09T06:54:45.257Z,-7.42
2023-02-09T06:55:44.949Z,-7.48
2023-02-09T06:56:44.932Z,-7.44
2023-02-09T06:57:44.944Z,-7.33
2023-02-09T06:58:44.941Z,-7.20
2023-02-09T06:59:44.920Z,-7.41
2023-02-09T07:00:45.328Z,-7.41
2023-02-09T07:01:44.921Z,-7.34
2023-02-09T07:02:44.953Z,-7.38
2023-02-09T07:03:44.922Z,-7.42
2023-02-09T07:04:44.876Z,-7.33
2023-02-09T07:05:44.862Z,-7.30
2023-02-09T07:06:44.842Z,-7.26
2023-02-09T07:07:44.839Z,-7.27
2023-02-09T07:08:44.853Z,-7.12
2023-02-09T07:09:44.853Z,-7.20
2023-02-09T07:10:45.107Z,-7.10
2023-02-09T07:11:44.786Z,-7.06
2023-02-09T07:12:44.778Z,-6.99
2023-02-09T07:13:44.834Z,-6.85
2023-02-09T07:14:44.778Z,-6.79
2023-02-09T07:15:44.814Z,-6.73
2023-02-09T07:16:44.786Z,-6.76
2023-02-09T07:17:44.773Z,-6.64
2023-02-09T07:18:44.928Z,-6.69
2023-02-09T07:19:44.733Z,-6.66
2023-02-09T07:20:45.010Z,-6.50
2023-02-09T07:21:44.694Z,-6.48
2023-02-09T07:22:44.687Z,-6.36
2023-02-09T07:23:44.698Z,-6.31
2023-02-09T07:24:44.683Z,-6.29
2023-02-09T07:25:44.672Z,-6.31
2023-02-09T07:26:44.711Z,-6.30
2023-02-09T07:27:44.716Z,-6.12
2023-02-09T07:28:44.682Z,-6.18
2023-02-09T07:29:44.620Z,-5.98
2023-02-09T07:30:45.058Z,-5.90
2023-02-09T07:31:44.717Z,-5.91
2023-02-09T07:32:44.637Z,-5.88
2023-02-09T07:33:44.611Z,-5.79
2023-02-09T07:34:44.572Z,-5.80
2023-02-09T07:35:44.564Z,-5.77
2023-02-09T07:36:47.335Z,-5.70
2023-02-09T07:37:44.575Z,-5.69
2023-02-09T07:38:44.561Z,-5.70
2023-02-09T07:39:44.515Z,-5.61
2023-02-09T07:40:44.852Z,-5.52
2023-02-09T07:41:44.538Z,-5.61
2023-02-09T07:42:44.502Z,-5.56
2023-02-09T07:43:44.517Z,-5.55
2023-02-09T07:44:44.492Z,-5.44
2023-02-09T07:45:44.770Z,-5.34
2023-02-09T07:46:44.562Z,-5.31
2023-02-09T07:47:44.456Z,-5.26
2023-02-09T07:48:44.536Z,-5.33
2023-02-09T07:49:44.474Z,-5.22
2023-02-09T07:50:44.759Z,-5.14
2023-02-09T07:51:44.406Z,-5.31
2023-02-09T07:52:44.402Z,-5.25
2023-02-09T07:53:44.411Z,-5.25
2023-02-09T07:54:44.366Z,-5.20
2023-02-09T07:55:44.559Z,-5.11
2023-02-09T07:56:44.391Z,-5.14
2023-02-09T07:57:44.325Z,-5.03
2023-02-09T07:58:44.361Z,-5.00
2023-02-09T07:59:44.302Z,-4.98
2023-02-09T08:00:44.945Z,-4.85
2023-02-09T08:01:44.348Z,-4.86
2023-02-09T08:02:44.301Z,-4.77
2023-02-09T08:03:44.319Z,-4.80
2023-02-09T08:04:44.295Z,-4.85
2023-02-09T08:05:44.694Z,-4.69
2023-02-09T08:06:44.269Z,-4.55
2023-02-09T08:07:44.229Z,-4.48
2023-02-09T08:08:44.223Z,-4.46
2023-02-09T08:09:44.203Z,-4.33
2023-02-09T08:10:44.191Z,-4.25
2023-02-09T08:11:45.785Z,-4.19
2023-02-09T08:12:44.201Z,-4.05
2023-02-09T08:13:44.205Z,-4.07
2023-02-09T08:14:44.209Z,-4.05
2023-02-09T08:15:44.525Z,-3.89
2023-02-09T08:16:44.142Z,-3.90
2023-02-09T08:17:44.156Z,-3.86
2023-02-09T08:18:44.161Z,-3.80
2023-02-09T08:19:44.140Z,-3.80
2023-02-09T08:20:44.127Z,-3.26
2023-02-09T08:21:44.127Z,-2.24
2023-02-09T08:22:44.095Z,-1.51
2023-02-09T08:23:44.103Z,-1.54
2023-02-09T08:24:44.076Z,-2.10
2023-02-09T08:25:44.592Z,-2.42
2023-02-09T08:26:44.040Z,-2.63
2023-02-09T08:27:44.024Z,-2.79
2023-02-09T08:28:44.919Z,-2.87
2023-02-09T08:29:44.017Z,-2.93
2023-02-09T08:30:44.014Z,-2.79
2023-02-09T08:31:44.013Z,-2.85
2023-02-09T08:32:44.018Z,-2.87
2023-02-09T08:33:44.013Z,-2.86
2023-02-09T08:34:43.977Z,-2.87
2023-02-09T08:35:44.356Z,-2.85
2023-02-09T08:36:43.939Z,-2.93
2023-02-09T08:37:43.961Z,-2.86
2023-02-09T08:38:43.943Z,-2.85
2023-02-09T08:39:43.891Z,-2.79
2023-02-09T08:40:43.939Z,-2.64
2023-02-09T08:41:46.119Z,-2.60
2023-02-09T08:42:43.884Z,-2.53
2023-02-09T08:43:43.881Z,-2.57
2023-02-09T08:44:43.881Z,-2.53
2023-02-09T08:45:44.383Z,-2.40
2023-02-09T08:46:44.050Z,-2.39
2023-02-09T08:47:43.870Z,-2.26
2023-02-09T08:48:43.865Z,-2.28
2023-02-09T08:49:43.828Z,-2.32
2023-02-09T08:50:43.837Z,-2.21
2023-02-09T08:51:43.783Z,-2.28
2023-02-09T08:52:43.849Z,-2.33
2023-02-09T08:53:43.769Z,-2.29
2023-02-09T08:54:43.777Z,-2.32
2023-02-09T08:55:44.152Z,-2.21
2023-02-09T08:56:43.745Z,-2.17
2023-02-09T08:57:44.801Z,-2.17
2023-02-09T08:58:43.728Z,-2.16
2023-02-09T08:59:43.797Z,-2.11
2023-02-09T09:00:43.748Z,-2.06
2023-02-09T09:01:43.676Z,-2.11
2023-02-09T09:02:43.701Z,-1.92
2023-02-09T09:03:43.739Z,-1.84
2023-02-09T09:04:43.689Z,-1.74
2023-02-09T09:05:43.667Z,-1.77
2023-02-09T09:06:43.660Z,-1.62
2023-02-09T09:07:43.627Z,-1.48
2023-02-09T09:08:43.619Z,-1.57
2023-02-09T09:09:43.657Z,-1.46
2023-02-09T09:12:10.569Z,-1.25
2023-02-09T09:13:10.557Z,-1.12
2023-02-09T09:14:10.627Z,-0.78
2023-02-09T09:16:49.414Z,0.09
2023-02-09T09:17:32.826Z,0.20
2023-02-09T09:18:34.521Z,0.05
2023-02-09T09:19:32.783Z,-0.11
2023-02-09T09:20:32.748Z,-0.39
2023-02-09T09:21:32.753Z,-0.63
2023-02-09T09:22:32.752Z,-0.77
2023-02-09T09:23:32.750Z,-0.70
2023-02-09T09:24:32.742Z,-0.63
2023-02-09T09:25:32.731Z,-0.55
2023-02-09T09:26:32.755Z,-0.59
2023-02-09T09:27:32.739Z,-0.55
2023-02-09T09:28:32.878Z,-0.47
2023-02-09T09:31:05.785Z,-0.24
2023-02-09T09:32:20.426Z,0.03
2023-02-09T09:33:05.679Z,0.20
2023-02-09T09:34:05.690Z,0.24
2023-02-09T09:35:07.047Z,0.34
2023-02-09T09:36:05.717Z,0.53
2023-02-09T09:41:03.342Z,0.79
2023-02-09T09:41:53.941Z,0.89
2023-02-09T09:42:53.931Z,0.97
2023-02-09T09:43:53.938Z,0.98
2023-02-09T09:44:54.736Z,1.08
2023-02-09T09:45:54.801Z,1.50
2023-02-09T09:46:53.902Z,2.13
2023-02-09T09:47:53.874Z,2.84
2023-02-09T09:48:55.029Z,3.47
2023-02-09T09:49:54.740Z,3.65
2023-02-09T09:50:53.873Z,3.78
2023-02-09T09:51:53.851Z,4.44
2023-02-09T09:52:53.831Z,4.92
2023-02-09T09:53:53.823Z,5.75
2023-02-09T09:54:53.830Z,6.04
2023-02-09T09:55:53.795Z,6.68
2023-02-09T09:56:53.830Z,7.22
2023-02-09T09:57:55.298Z,8.03
2023-02-09T09:58:53.771Z,8.10
2023-02-09T09:59:53.790Z,7.15
2023-02-09T10:00:53.880Z,7.31
2023-02-09T10:01:53.778Z,7.50
2023-02-09T10:02:53.761Z,7.52
2023-02-09T10:03:53.739Z,8.03
2023-02-09T10:04:53.810Z,7.94
2023-02-09T10:07:31.421Z,8.78
2023-02-09T10:08:30.476Z,9.57
2023-02-09T10:09:30.358Z,9.85
2023-02-09T10:10:30.346Z,9.91
2023-02-09T10:11:30.288Z,10.18
2023-02-09T10:12:30.360Z,10.98
2023-02-09T10:13:44.939Z,11.49
2023-02-09T10:16:01.343Z,12.15
2023-02-09T10:16:56.316Z,12.52
2023-02-09T10:17:56.348Z,12.92
2023-02-09T10:18:56.303Z,13.04
2023-02-09T10:19:56.251Z,13.37
2023-02-09T10:20:56.254Z,13.70
2023-02-09T10:21:56.216Z,14.06
2023-02-09T10:22:56.199Z,12.67
2023-02-09T10:23:56.184Z,10.89
2023-02-09T10:24:56.187Z,10.55
2023-02-09T10:25:56.202Z,11.02
2023-02-09T10:26:56.158Z,11.71
2023-02-09T10:27:56.234Z,12.51
2023-02-09T10:28:56.181Z,13.20
2023-02-09T10:29:56.161Z,13.77
2023-02-09T10:30:56.285Z,14.52
2023-02-09T10:31:56.303Z,14.99
2023-02-09T10:32:56.146Z,13.47
2023-02-09T10:33:56.136Z,12.01
2023-02-09T10:34:56.142Z,12.60
2023-02-09T10:35:56.093Z,12.70
2023-02-09T10:36:56.095Z,12.67
2023-02-09T10:37:56.057Z,13.27
2023-02-09T10:38:56.040Z,13.47
2023-02-09T10:39:56.022Z,12.09
2023-02-09T10:40:56.053Z,10.76
2023-02-09T10:41:56.034Z,10.65
2023-02-09T10:42:55.995Z,10.00
2023-02-09T10:43:56.016Z,9.70
2023-02-09T10:44:56.026Z,9.45
2023-02-09T10:45:56.058Z,9.38
2023-02-09T10:46:55.961Z,9.53
2023-02-09T10:47:55.986Z,9.43
2023-02-09T10:48:55.952Z,9.68
2023-02-09T10:49:55.916Z,9.81
2023-02-09T10:50:55.993Z,10.12
2023-02-09T10:51:55.905Z,10.53
2023-02-09T10:52:55.913Z,11.78
2023-02-09T10:53:55.895Z,12.56
2023-02-09T10:54:55.873Z,13.69
2023-02-09T10:55:55.899Z,13.04
2023-02-09T10:56:55.885Z,12.54
2023-02-09T10:57:55.859Z,12.87
2023-02-09T10:58:55.845Z,13.36
2023-02-09T10:59:55.838Z,13.30
2023-02-09T11:00:55.846Z,13.32
2023-02-09T11:01:55.873Z,13.92
2023-02-09T11:02:55.807Z,14.46
2023-02-09T11:03:55.875Z,14.69
2023-02-09T11:04:55.768Z,15.20
2023-02-09T11:05:55.779Z,15.75
2023-02-09T11:06:55.757Z,16.30
2023-02-09T11:07:55.727Z,17.23
2023-02-09T11:08:55.725Z,17.88
2023-02-09T11:09:55.744Z,17.64
2023-02-09T11:10:55.716Z,16.30
2023-02-09T11:11:55.707Z,16.30
2023-02-09T11:12:55.690Z,16.62
2023-02-09T11:13:55.671Z,15.88
2023-02-09T11:14:55.663Z,14.32
2023-02-09T11:15:55.701Z,14.71
2023-02-09T11:16:55.638Z,15.70
2023-02-09T11:17:55.649Z,16.70
2023-02-09T11:18:55.615Z,15.46
2023-02-09T11:19:55.600Z,15.86
2023-02-09T11:20:55.611Z,15.93
2023-02-09T11:21:55.583Z,13.96
2023-02-09T11:22:55.625Z,12.92
2023-02-09T11:23:55.567Z,11.50
2023-02-09T11:24:55.600Z,11.29
2023-02-09T11:25:55.573Z,12.08
2023-02-09T11:26:55.537Z,13.38
2023-02-09T11:27:55.567Z,13.11
2023-02-09T11:28:55.531Z,12.79
2023-02-09T11:29:55.533Z,12.63
2023-02-09T11:30:55.600Z,12.24
2023-02-09T11:31:55.664Z,12.92
2023-02-09T11:32:55.478Z,12.74
2023-02-09T11:33:55.470Z,13.06
2023-02-09T11:34:55.452Z,13.15
2023-02-09T11:35:55.492Z,11.80
2023-02-09T11:36:55.439Z,10.47
2023-02-09T11:37:55.470Z,10.30
2023-02-09T11:38:55.409Z,11.62
2023-02-09T11:39:55.393Z,12.69
2023-02-09T11:40:55.376Z,13.91
2023-02-09T11:41:55.385Z,15.05
2023-02-09T11:42:55.374Z,16.30
2023-02-09T11:43:55.356Z,17.07
2023-02-09T11:44:55.381Z,18.19
2023-02-09T11:45:55.355Z,18.83
2023-02-09T11:46:55.352Z,19.35
2023-02-09T11:47:55.401Z,19.33
2023-02-09T11:48:55.340Z,18.43
2023-02-09T11:49:55.413Z,17.40
2023-02-09T11:50:55.287Z,16.34
2023-02-09T11:51:55.293Z,15.19
2023-02-09T11:52:55.259Z,14.75
2023-02-09T11:53:55.257Z,13.87
2023-02-09T11:54:55.250Z,14.02
2023-02-09T11:55:55.227Z,15.42
2023-02-09T11:56:55.251Z,16.78
2023-02-09T11:57:55.204Z,17.74
2023-02-09T11:58:55.225Z,18.24
2023-02-09T12:00:04.893Z,18.64
2023-02-09T12:04:15.069Z,17.13
2023-02-09T12:04:50.417Z,17.00
2023-02-09T12:05:50.227Z,17.22
2023-02-09T12:06:49.892Z,16.35
2023-02-09T12:07:50.461Z,15.64
2023-02-09T12:08:50.400Z,15.39
2023-02-09T12:09:49.822Z,15.52
2023-02-09T12:10:49.788Z,16.33
2023-02-09T12:11:49.837Z,15.11
2023-02-09T12:12:49.980Z,15.03
2023-02-09T12:16:50.364Z,12.45
2023-02-09T12:17:49.332Z,12.70
2023-02-09T12:18:49.426Z,13.33
2023-02-09T12:19:51.965Z,13.51
2023-02-09T12:20:49.325Z,14.38
2023-02-09T12:21:49.301Z,15.15
2023-02-09T12:22:49.270Z,16.09
2023-02-09T12:23:49.280Z,16.74
2023-02-09T12:24:49.347Z,16.45
2023-02-09T12:25:51.314Z,14.74
2023-02-09T12:26:49.251Z,13.94
2023-02-09T12:27:49.264Z,14.65
2023-02-09T12:28:49.228Z,15.63
2023-02-09T12:29:49.226Z,16.78
2023-02-09T12:30:49.491Z,17.51
2023-02-09T12:31:49.347Z,18.22
2023-02-09T12:32:49.203Z,17.99
2023-02-09T12:33:49.195Z,16.15
2023-02-09T12:34:49.159Z,16.37
2023-02-09T12:35:49.176Z,16.56
2023-02-09T12:36:49.201Z,14.20
2023-02-09T12:37:49.172Z,13.79
2023-02-09T12:38:50.271Z,13.49
2023-02-09T12:39:49.100Z,14.27
2023-02-09T12:40:49.136Z,14.19
2023-02-09T12:41:49.204Z,13.36
2023-02-09T12:42:49.102Z,12.62
2023-02-09T12:43:49.074Z,12.44
2023-02-09T12:44:49.051Z,12.21
2023-02-09T12:45:49.423Z,12.77
2023-02-09T12:46:49.050Z,13.24
2023-02-09T12:47:49.091Z,14.42
2023-02-09T12:48:49.013Z,15.49
2023-02-09T12:49:49.045Z,16.15
2023-02-09T12:50:49.030Z,17.26
2023-02-09T12:51:48.985Z,18.03
2023-02-09T12:52:48.988Z,18.52
2023-02-09T12:53:48.987Z,17.62
2023-02-09T12:54:48.977Z,16.00
2023-02-09T12:55:49.810Z,16.15
2023-02-09T12:56:48.939Z,15.56
2023-02-09T12:57:48.972Z,14.42
2023-02-09T12:58:48.941Z,13.71
2023-02-09T12:59:48.951Z,14.56
2023-02-09T13:00:49.012Z,14.53
2023-02-09T13:01:48.921Z,14.35
2023-02-09T13:02:48.920Z,13.83
2023-02-09T13:03:49.021Z,13.69
2023-02-09T13:04:48.851Z,14.49
2023-02-09T13:05:49.186Z,14.42
2023-02-09T13:06:48.831Z,14.43
2023-02-09T13:07:48.885Z,14.68
2023-02-09T13:08:48.835Z,14.74
2023-02-09T13:09:48.811Z,15.31
2023-02-09T13:10:48.819Z,15.82
2023-02-09T13:11:48.778Z,16.00
2023-02-09T13:12:48.815Z,15.61
2023-02-09T13:13:48.787Z,14.93
2023-02-09T13:14:48.774Z,13.89
2023-02-09T13:15:48.786Z,13.84
2023-02-09T13:16:48.861Z,13.37
2023-02-09T13:17:48.766Z,13.21
2023-02-09T13:18:48.752Z,13.27